Time;durP1;ratioP1;P1;durP2;ratioP2;P2;SDS_P1;SDS_P2;PMS_P1;PMS_P2;Temp;Humidity;BMP_temperature;BMP_pressure;BME280_temperature;BME280_humidity;BME280_pressure;Samples;Min_cycle;Max_cycle;Signal;HPM_P1;HPM_P2
2022/04/24 00:00:56;;;;;;;7.53;2.63;;;;;;;5.93;100.00;100563.84;4972504;28;20033;-87
2022/04/24 00:03:22;;;;;;;8.67;3.13;;;;;;;5.99;100.00;100559.00;4973658;28;20037;-88
2022/04/24 00:05:47;;;;;;;11.83;4.07;;;;;;;5.95;100.00;100557.59;4957140;28;20077;-87
2022/04/24 00:08:13;;;;;;;4.28;2.70;;;;;;;5.88;100.00;100534.28;4973498;28;20093;-87
2022/04/24 00:10:38;;;;;;;9.63;3.33;;;;;;;5.95;100.00;100549.66;4970378;28;20034;-87
2022/04/24 00:13:04;;;;;;;8.33;2.60;;;;;;;6.01;100.00;100541.16;4955932;28;20031;-88
2022/04/24 00:15:29;;;;;;;7.10;2.50;;;;;;;5.93;100.00;100540.00;4957379;28;20390;-87
2022/04/24 00:17:54;;;;;;;7.17;2.87;;;;;;;5.97;100.00;100523.84;4957171;28;20038;-87
2022/04/24 00:20:20;;;;;;;10.13;3.40;;;;;;;5.83;100.00;100523.28;4970328;28;20045;-87
2022/04/24 00:22:45;;;;;;;6.87;2.73;;;;;;;5.98;100.00;100541.44;4950458;28;20037;-87
2022/04/24 00:25:11;;;;;;;6.13;2.77;;;;;;;5.94;100.00;100540.88;4956878;28;20022;-87
2022/04/24 00:27:36;;;;;;;7.53;3.23;;;;;;;5.98;100.00;100546.75;4974033;28;20040;-87
2022/04/24 00:30:03;;;;;;;10.27;2.97;;;;;;;5.91;100.00;100552.56;4955741;28;20031;-87
2022/04/24 00:32:29;;;;;;;8.27;3.05;;;;;;;5.86;100.00;100556.59;4957131;28;20022;-86
2022/04/24 00:34:54;;;;;;;7.27;3.90;;;;;;;5.91;100.00;100568.47;4956949;28;20101;-87
2022/04/24 00:37:19;;;;;;;7.63;3.23;;;;;;;5.88;100.00;100563.44;4953521;28;20037;-87
2022/04/24 00:39:45;;;;;;;6.10;3.40;;;;;;;5.90;100.00;100566.78;4949679;28;20014;-87
2022/04/24 00:42:10;;;;;;;7.60;3.40;;;;;;;5.82;100.00;100548.06;4955872;28;20097;-87
2022/04/24 00:44:35;;;;;;;8.70;3.90;;;;;;;5.87;100.00;100566.22;4953515;28;20061;-88
2022/04/24 00:47:22;;;;;;;16.08;4.60;;;;;;;5.73;100.00;100572.72;4975843;28;20109;-87
2022/04/24 00:49:47;;;;;;;7.20;3.53;;;;;;;5.67;100.00;100575.94;4965069;28;20446;-87
2022/04/24 00:52:13;;;;;;;12.20;4.50;;;;;;;5.66;100.00;100590.97;4956606;28;20026;-87
2022/04/24 00:54:39;;;;;;;12.35;4.88;;;;;;;5.64;100.00;100589.44;4983851;28;20042;-87
2022/04/24 00:57:06;;;;;;;10.90;4.38;;;;;;;5.61;100.00;100579.13;4960018;28;20665;-87
2022/04/24 00:59:32;;;;;;;8.70;4.43;;;;;;;5.55;100.00;100583.16;4956660;28;20474;-87
2022/04/24 01:01:59;;;;;;;12.47;4.73;;;;;;;5.44;100.00;100581.44;4955335;28;20035;-87
2022/04/24 01:04:24;;;;;;;15.70;5.40;;;;;;;5.41;100.00;100600.22;4969972;28;20390;-87
2022/04/24 01:06:50;;;;;;;15.52;6.82;;;;;;;5.42;100.00;100596.59;4990048;28;20101;-87
2022/04/24 01:09:18;;;;;;;13.05;5.47;;;;;;;5.42;100.00;100593.13;4956619;28;20687;-87
2022/04/24 01:11:45;;;;;;;13.02;5.95;;;;;;;5.34;100.00;100591.16;4951904;28;20026;-87
2022/04/24 01:14:11;;;;;;;15.65;6.65;;;;;;;5.40;100.00;100589.75;4974745;28;20038;-88
2022/04/24 01:16:37;;;;;;;8.77;5.85;;;;;;;5.41;100.00;100592.28;4967356;28;20550;-87
2022/04/24 01:19:04;;;;;;;12.45;6.18;;;;;;;5.31;100.00;100594.03;4989920;28;20031;-87
2022/04/24 01:21:29;;;;;;;11.95;5.75;;;;;;;5.24;100.00;100584.94;4975241;28;20026;-87
2022/04/24 01:23:55;;;;;;;12.33;6.40;;;;;;;5.25;100.00;100595.41;4959249;28;20113;-88
2022/04/24 01:26:20;;;;;;;15.47;6.40;;;;;;;5.25;100.00;100594.59;4975252;28;20117;-89
2022/04/24 01:28:45;;;;;;;13.93;7.33;;;;;;;5.22;100.00;100581.59;4956037;28;20062;-89
2022/04/24 01:31:11;;;;;;;16.87;6.77;;;;;;;5.23;100.00;100594.69;4958057;28;20026;-87
2022/04/24 01:33:36;;;;;;;17.53;6.97;;;;;;;5.21;100.00;100595.81;4974356;28;20045;-87
2022/04/24 01:36:02;;;;;;;14.90;7.07;;;;;;;5.19;100.00;100597.75;4957606;28;20023;-87
2022/04/24 01:38:30;;;;;;;20.20;7.05;;;;;;;5.17;100.00;100597.03;4975044;28;20410;-87
2022/04/24 01:40:56;;;;;;;15.13;6.40;;;;;;;5.20;100.00;100594.97;4992139;28;20149;-88
2022/04/24 01:43:21;;;;;;;15.83;6.90;;;;;;;5.24;100.00;100595.53;4958488;28;20538;-87
2022/04/24 01:45:47;;;;;;;16.43;7.80;;;;;;;5.24;100.00;100595.53;4975280;28;20037;-89
2022/04/24 01:48:12;;;;;;;12.13;6.57;;;;;;;5.24;100.00;100595.53;4959028;28;20034;-87
2022/04/24 01:50:37;;;;;;;18.83;7.93;;;;;;;5.19;100.00;100588.00;4955506;28;20022;-88
2022/04/24 01:53:03;;;;;;;15.27;7.47;;;;;;;5.15;100.00;100588.38;4956983;28;20062;-87
2022/04/24 01:55:28;;;;;;;12.75;6.57;;;;;;;5.02;100.00;100576.19;4958947;28;20723;-86
2022/04/24 01:57:54;;;;;;;14.73;6.20;;;;;;;5.04;100.00;100574.28;4966706;28;20042;-87
2022/04/24 02:00:20;;;;;;;18.00;7.40;;;;;;;5.08;100.00;100580.97;4955259;28;20026;-89
2022/04/24 02:02:46;;;;;;;18.08;7.30;;;;;;;5.11;100.00;100573.75;4970611;28;20041;-89
2022/04/24 02:05:12;;;;;;;17.83;7.32;;;;;;;5.11;100.00;100573.75;4957751;28;20113;-88
2022/04/24 02:07:37;;;;;;;12.88;6.10;;;;;;;5.18;100.00;100582.84;4958815;28;20173;-87
2022/04/24 02:10:03;;;;;;;14.67;6.77;;;;;;;5.22;100.00;100582.44;4958695;28;20030;-85
2022/04/24 02:12:30;;;;;;;14.63;5.75;;;;;;;5.25;100.00;100579.53;4958866;28;20034;-85
2022/04/24 02:14:56;;;;;;;16.00;6.57;;;;;;;5.25;100.00;100582.19;4975042;28;20014;-86
2022/04/24 02:17:21;;;;;;;9.25;5.40;;;;;;;5.37;100.00;100569.69;4959067;28;20045;-86
2022/04/24 02:19:46;;;;;;;14.23;4.87;;;;;;;5.44;100.00;100567.34;4959392;28;20479;-86
2022/04/24 02:22:12;;;;;;;12.93;4.97;;;;;;;5.35;100.00;100552.28;4958423;28;20105;-86
2022/04/24 02:24:37;;;;;;;10.50;4.77;;;;;;;5.31;100.00;100559.63;4966310;28;20026;-86
2022/04/24 02:27:03;;;;;;;13.90;5.30;;;;;;;5.28;100.00;100539.56;4974659;28;20038;-86
2022/04/24 02:29:28;;;;;;;9.05;4.53;;;;;;;5.38;100.00;100544.88;4972399;28;20427;-86
2022/04/24 02:31:54;;;;;;;11.47;4.13;;;;;;;5.35;100.00;100545.16;4971904;28;20484;-85
2022/04/24 02:34:20;;;;;;;9.43;4.70;;;;;;;5.32;100.00;100534.00;4958560;28;21172;-86
2022/04/24 02:36:45;;;;;;;8.18;4.10;;;;;;;5.26;100.00;100535.38;4958649;28;20044;-86
2022/04/24 02:39:11;;;;;;;12.20;4.18;;;;;;;5.19;100.00;100528.94;4958370;28;20117;-87
2022/04/24 02:41:36;;;;;;;8.63;4.93;;;;;;;5.18;100.00;100537.84;4973939;28;20037;-86
2022/04/24 02:44:02;;;;;;;14.68;4.68;;;;;;;5.17;100.00;100534.34;4992000;28;20030;-85
2022/04/24 02:46:28;;;;;;;15.80;5.05;;;;;;;5.23;100.00;100533.00;4955562;28;20042;-86
2022/04/24 02:48:53;;;;;;;10.52;4.22;;;;;;;5.26;100.00;100532.72;4964817;28;20022;-86
2022/04/24 02:51:19;;;;;;;11.00;4.53;;;;;;;5.29;100.00;100535.09;4954903;28;20034;-87
2022/04/24 02:53:44;;;;;;;10.43;4.37;;;;;;;5.23;100.00;100525.06;4954047;28;20077;-86
2022/04/24 02:56:10;;;;;;;10.43;4.05;;;;;;;5.23;100.00;100520.59;4958489;28;20520;-85
2022/04/24 02:58:37;;;;;;;11.30;3.13;;;;;;;5.26;100.00;100527.41;4955514;28;20395;-86
2022/04/24 03:01:03;;;;;;;7.95;4.00;;;;;;;5.19;100.00;100515.69;4956684;28;20049;-86
2022/04/24 03:03:28;;;;;;;10.82;3.58;;;;;;;5.17;100.00;100525.56;4974335;28;20026;-86
2022/04/24 03:05:54;;;;;;;9.47;3.57;;;;;;;5.24;100.00;100526.72;4974813;28;20056;-86
2022/04/24 03:08:20;;;;;;;5.53;3.47;;;;;;;5.27;100.00;100534.41;4969272;28;20022;-86
2022/04/24 03:10:45;;;;;;;6.57;3.65;;;;;;;5.23;100.00;100522.41;4965902;28;20044;-86
2022/04/24 03:13:11;;;;;;;4.90;3.42;;;;;;;5.23;100.00;100525.06;4992851;28;20030;-86
2022/04/24 03:15:38;;;;;;;6.32;3.67;;;;;;;5.23;100.00;100519.75;4992402;28;20042;-86
2022/04/24 03:18:04;;;;;;;;;;;;;;;5.18;100.00;100509.56;4987640;28;20023;-86
2022/04/24 03:20:30;;;;;;;8.57;3.65;;;;;;;5.17;100.00;100513.16;4979779;28;19917;-86
2022/04/24 03:22:55;;;;;;;7.75;3.83;;;;;;;5.22;100.00;100516.28;4973414;28;20041;-87
2022/04/24 03:25:21;;;;;;;7.53;3.20;;;;;;;5.20;100.00;100514.75;4959176;28;20034;-86
2022/04/24 03:27:46;;;;;;;7.90;3.77;;;;;;;5.13;100.00;100500.34;4958893;28;20028;-86
2022/04/24 03:30:12;;;;;;;8.10;3.73;;;;;;;5.17;100.00;100512.34;4975723;28;20073;-87
2022/04/24 03:32:38;;;;;;;8.02;3.75;;;;;;;5.14;100.00;100502.03;4972388;28;20038;-87
2022/04/24 03:35:06;;;;;;;6.45;3.42;;;;;;;5.19;100.00;100505.94;4957590;28;20042;-86
2022/04/24 03:37:32;;;;;;;10.50;4.10;;;;;;;5.14;100.00;100489.63;4986691;23;20028;-85
2022/04/24 03:39:58;;;;;;;10.35;4.40;;;;;;;5.27;100.00;100494.72;4968968;28;20589;-84
2022/04/24 03:42:25;;;;;;;7.82;4.18;;;;;;;5.28;100.00;100493.72;4954745;28;20076;-84
2022/04/24 03:44:53;;;;;;;9.52;3.53;;;;;;;5.34;100.00;100495.84;4972097;28;20057;-81
2022/04/24 03:47:19;;;;;;;8.32;3.17;;;;;;;5.23;100.00;100488.00;4963400;28;20553;-83
2022/04/24 03:49:44;;;;;;;7.68;4.35;;;;;;;5.22;100.00;100488.94;4955827;28;20121;-83
2022/04/24 03:52:11;;;;;;;11.07;4.73;;;;;;;5.19;100.00;100491.88;4955785;28;20045;-84
2022/04/24 03:54:37;;;;;;;8.35;3.60;;;;;;;5.11;100.00;100494.38;4971993;28;20037;-83
2022/04/24 03:57:02;;;;;;;6.97;3.72;;;;;;;5.06;100.00;100498.25;4971584;28;20477;-80
2022/04/24 03:59:29;;;;;;;13.05;3.63;;;;;;;5.05;100.00;100501.84;4955594;28;20438;-83
2022/04/24 04:01:54;;;;;;;7.03;3.90;;;;;;;5.03;100.00;100509.09;4955237;28;20026;-81
2022/04/24 04:04:19;;;;;;;9.47;5.80;;;;;;;5.03;100.00;100513.53;4955676;28;20103;-84
2022/04/24 04:06:45;;;;;;;12.27;4.07;;;;;;;5.05;100.00;100519.53;4955903;28;20487;-82
2022/04/24 04:09:10;;;;;;;8.57;4.23;;;;;;;5.01;100.00;100524.28;4972122;28;20435;-80
2022/04/24 04:11:35;;;;;;;15.23;4.67;;;;;;;5.19;100.00;100531.56;4956149;28;20818;-82
2022/04/24 04:14:01;;;;;;;10.47;4.17;;;;;;;5.34;100.00;100538.19;4954672;28;20034;-84
2022/04/24 04:16:26;;;;;;;9.03;4.63;;;;;;;5.24;100.00;100534.66;4972558;28;20023;-84
2022/04/24 04:18:52;;;;;;;12.17;6.40;;;;;;;5.16;100.00;100537.16;4956341;28;20539;-83
2022/04/24 04:21:17;;;;;;;16.20;5.00;;;;;;;5.11;100.00;100532.25;4951547;28;20042;-82
2022/04/24 04:23:42;;;;;;;13.07;4.67;;;;;;;5.13;100.00;100534.75;4966998;28;20061;-85
2022/04/24 04:26:08;;;;;;;8.00;4.47;;;;;;;5.12;100.00;100531.25;4971211;28;20041;-83
2022/04/24 04:28:33;;;;;;;13.53;5.23;;;;;;;5.05;100.00;100528.31;4958060;28;20033;-81
2022/04/24 04:30:58;;;;;;;10.27;4.90;;;;;;;5.05;100.00;100527.47;4972756;28;20414;-83
2022/04/24 04:33:24;;;;;;;10.87;5.53;;;;;;;5.03;100.00;100529.41;4959021;28;20505;-83
2022/04/24 04:35:49;;;;;;;12.07;5.73;;;;;;;5.03;100.00;100535.56;4963153;28;20022;-81
2022/04/24 04:38:14;;;;;;;16.20;7.67;;;;;;;5.02;100.00;100538.34;4976996;28;20030;-83
2022/04/24 04:40:40;;;;;;;14.23;5.97;;;;;;;5.06;100.00;100537.94;4960633;28;20030;-84
2022/04/24 04:43:06;;;;;;;14.35;4.45;;;;;;;5.14;100.00;100536.44;4975887;28;20371;-82
2022/04/24 04:45:32;;;;;;;9.30;4.72;;;;;;;5.12;100.00;100538.38;4960131;28;20060;-82
2022/04/24 04:47:58;;;;;;;10.45;4.55;;;;;;;5.10;100.00;100533.19;4958414;28;20062;-80
2022/04/24 04:50:23;;;;;;;8.23;4.13;;;;;;;5.11;100.00;100534.06;4974696;28;20027;-83
2022/04/24 04:52:48;;;;;;;7.73;4.40;;;;;;;5.11;100.00;100531.41;4974521;28;20828;-84
2022/04/24 04:55:14;;;;;;;10.13;4.33;;;;;;;5.23;100.00;100538.28;4974922;28;20030;-84
2022/04/24 04:57:39;;;;;;;9.30;4.30;;;;;;;5.31;100.00;100532.31;4971371;28;20027;-84
2022/04/24 05:00:07;;;;;;;12.55;4.75;;;;;;;5.38;100.00;100533.47;4981216;28;20037;-82
2022/04/24 05:02:40;;;;;;;10.77;4.30;;;;;;;5.37;100.00;100522.03;4954962;28;20073;-82
2022/04/24 05:05:07;;;;;;;6.95;3.88;;;;;;;5.43;100.00;100510.06;4973225;28;20104;-80
2022/04/24 05:07:32;;;;;;;10.82;3.97;;;;;;;5.57;100.00;100516.78;4957837;28;20026;-81
2022/04/24 05:09:58;;;;;;;7.30;4.33;;;;;;;5.61;100.00;100511.09;4990274;28;20076;-79
2022/04/24 05:12:27;;;;;;;6.77;4.30;;;;;;;6.04;100.00;100514.38;4979374;28;20026;-84
2022/04/24 05:14:58;;;;;;;9.15;4.28;;;;;;;6.84;100.00;100510.53;4982959;28;20034;-84
2022/04/24 05:17:24;;;;;;;6.70;3.83;;;;;;;7.69;100.00;100471.41;4958638;28;20034;-83
2022/04/24 05:19:49;;;;;;;6.07;3.60;;;;;;;8.75;100.00;100436.84;4957497;28;20019;-82
2022/04/24 05:22:14;;;;;;;6.90;3.60;;;;;;;9.45;100.00;100348.69;4969876;28;20042;-81
2022/04/24 05:24:40;;;;;;;5.83;3.17;;;;;;;9.69;100.00;100249.28;4949304;28;20605;-81
2022/04/24 05:27:05;;;;;;;4.43;2.90;;;;;;;10.29;93.12;100209.78;4971603;28;20499;-78
2022/04/24 05:29:31;;;;;;;6.45;3.20;;;;;;;10.90;87.69;100177.88;4953937;28;20062;-82
2022/04/24 05:31:56;;;;;;;4.77;2.50;;;;;;;11.11;85.94;100180.72;4971908;28;20041;-84
2022/04/24 05:34:21;;;;;;;7.97;2.60;;;;;;;11.40;83.07;100169.28;4974033;28;20030;-82
2022/04/24 05:36:47;;;;;;;6.13;3.50;;;;;;;11.17;77.49;100056.28;4956539;28;20037;-80
2022/04/24 05:39:12;;;;;;;4.90;3.10;;;;;;;12.00;76.32;100118.50;4956304;28;20030;-82
2022/04/24 05:41:38;;;;;;;4.27;2.73;;;;;;;11.89;72.68;100031.53;4954705;28;20700;-84
2022/04/24 05:44:03;;;;;;;4.53;2.83;;;;;;;12.18;71.21;100048.53;4972772;28;20037;-81
2022/04/24 05:46:30;;;;;;;4.20;2.70;;;;;;;12.74;69.59;100075.44;4955922;28;20038;-81
2022/04/24 05:48:56;;;;;;;9.20;4.35;;;;;;;12.87;68.22;100040.69;4954451;28;20026;-79
2022/04/24 05:51:21;;;;;;;6.25;2.90;;;;;;;12.76;67.35;100013.59;4969595;28;20031;-80
2022/04/24 05:53:47;;;;;;;4.70;2.60;;;;;;;13.21;66.35;100057.03;4971860;28;20026;-83
2022/04/24 05:56:12;;;;;;;5.43;2.67;;;;;;;13.08;65.59;100018.38;4971445;28;20445;-82
2022/04/24 05:58:37;;;;;;;5.80;3.17;;;;;;;12.61;66.00;100003.00;4952795;28;20057;-82
2022/04/24 06:01:03;;;;;;;5.57;2.77;;;;;;;12.71;66.88;100051.69;4987091;28;20487;-83
2022/04/24 06:03:28;;;;;;;6.47;3.13;;;;;;;12.97;66.29;100075.19;4971838;28;20034;-81
2022/04/24 06:05:53;;;;;;;6.20;3.27;;;;;;;13.17;66.16;100095.94;4955726;28;20471;-81
2022/04/24 06:08:19;;;;;;;6.20;3.20;;;;;;;12.85;66.52;100080.25;4952338;28;20076;-83
2022/04/24 06:10:44;;;;;;;5.63;3.40;;;;;;;12.89;66.79;100092.22;4967706;28;20030;-82
2022/04/24 06:13:10;;;;;;;8.17;3.67;;;;;;;12.52;66.54;100036.28;4971131;28;20549;-81
2022/04/24 06:15:38;;;;;;;8.10;3.17;;;;;;;12.47;68.62;100122.53;4971541;28;20061;-79
2022/04/24 06:18:03;;;;;;;5.22;3.03;;;;;;;12.51;68.90;100134.53;4971171;28;20026;-79
2022/04/24 06:20:29;;;;;;;5.30;2.73;;;;;;;12.45;69.80;100170.94;4971602;28;20093;-82
2022/04/24 06:22:56;;;;;;;6.90;3.40;;;;;;;11.39;71.37;100086.59;4954659;28;20064;-81
2022/04/24 06:25:31;;;;;;;5.80;3.17;;;;;;;11.94;72.88;100215.53;4971792;28;20042;-82
2022/04/24 06:27:57;;;;;;;6.55;3.20;;;;;;;12.23;71.55;100204.84;4987321;28;20022;-80
2022/04/24 06:30:24;;;;;;;4.82;3.13;;;;;;;12.45;70.05;100188.81;4971188;28;20025;-80
2022/04/24 06:32:50;;;;;;;5.97;3.38;;;;;;;12.09;69.62;100120.06;4971866;28;20147;-80
2022/04/24 06:35:17;;;;;;;4.13;2.90;;;;;;;11.82;72.17;100183.03;4990126;28;20030;-79
2022/04/24 06:37:53;;;;;;;4.93;3.63;;;;;;;12.13;71.73;100211.50;4973419;28;20364;-82
2022/04/24 06:40:19;;;;;;;;;;;;;;;12.07;71.67;100202.34;4949748;28;20041;-83
2022/04/24 06:42:56;;;;;;;;;;;;;;;11.79;71.81;100172.72;4994224;28;19910;-80
2022/04/24 06:45:29;;;;;;;4.18;2.72;;;;;;;12.51;70.67;100217.53;4973571;28;20509;-81
2022/04/24 06:47:55;;;;;;;9.48;3.55;;;;;;;12.02;70.17;100127.19;4990280;28;20597;-82
2022/04/24 06:50:22;;;;;;;5.43;2.85;;;;;;;11.96;70.95;100165.38;4967863;28;20041;-84
2022/04/24 06:53:18;;;;;;;4.30;2.72;;;;;;;12.40;66.03;100060.06;4958644;28;20034;-84
2022/04/24 06:55:44;;;;;;;4.30;2.47;;;;;;;12.06;66.54;100042.84;4957715;28;20039;-84
2022/04/24 06:58:11;;;;;;;6.45;3.53;;;;;;;10.99;66.25;99902.53;4977024;28;20030;-83
2022/04/24 07:00:38;;;;;;;4.85;2.72;;;;;;;10.64;69.56;100000.22;4991811;28;20049;-83
2022/04/24 07:03:16;;;;;;;4.50;2.40;;;;;;;11.98;69.26;100177.53;4955636;28;20127;-81
2022/04/24 07:05:42;;;;;;;4.85;2.40;;;;;;;12.14;68.21;100159.63;4988911;28;20049;-82
2022/04/24 07:08:08;;;;;;;2.83;2.35;;;;;;;12.96;66.51;100190.59;4955644;28;20022;-81
2022/04/24 07:10:33;;;;;;;4.82;2.13;;;;;;;12.97;64.59;100103.81;4971724;28;20080;-81
2022/04/24 07:13:00;;;;;;;5.03;2.63;;;;;;;12.82;63.98;100056.53;4969502;28;20026;-81
2022/04/24 07:15:29;;;;;;;5.03;2.42;;;;;;;12.63;63.79;100031.22;4987432;28;21023;-80
2022/04/24 07:17:56;;;;;;;4.20;2.25;;;;;;;12.04;65.11;100018.94;4971803;28;20038;-83
2022/04/24 07:20:22;;;;;;;4.70;2.30;;;;;;;12.38;64.51;100022.78;4955922;28;20057;-80
2022/04/24 07:22:52;;;;;;;4.60;2.47;;;;;;;12.53;64.76;100084.31;4971185;28;20662;-80
2022/04/24 07:25:22;;;;;;;4.25;2.60;;;;;;;12.05;64.16;99971.63;4972488;28;20040;-80
2022/04/24 07:27:51;;;;;;;5.07;2.45;;;;;;;12.89;64.51;100134.28;4955862;28;20498;-82
2022/04/24 07:30:19;;;;;;;6.43;2.22;;;;;;;12.91;62.90;100043.81;4963498;28;20026;-83
2022/04/24 07:32:50;;;;;;;3.97;2.28;;;;;;;12.57;62.54;99978.47;4954770;28;20085;-82
2022/04/24 07:35:17;;;;;;;3.63;2.05;;;;;;;12.00;62.84;99920.53;4947248;28;20048;-80
2022/04/24 07:37:43;;;;;;;5.93;2.40;;;;;;;12.93;65.92;100189.13;4954780;28;20018;-82
2022/04/24 07:40:11;;;;;;;4.53;2.30;;;;;;;12.80;65.43;100124.72;4986292;28;20046;-82
2022/04/24 07:42:50;;;;;;;3.83;2.80;;;;;;;12.33;65.72;100072.56;4955306;28;20414;-82
2022/04/24 07:45:36;;;;;;;5.90;3.08;;;;;;;12.06;69.32;100167.75;4971225;28;20296;-79
2022/04/24 07:48:04;;;;;;;4.90;2.85;;;;;;;12.63;68.86;100210.66;4970914;28;20602;-84
2022/04/24 07:50:32;;;;;;;6.75;3.30;;;;;;;12.22;67.69;100109.50;4955474;28;20153;-83
2022/04/24 07:52:57;;;;;;;4.57;3.10;;;;;;;12.45;67.52;100140.63;4970747;28;20405;-83
2022/04/24 07:55:24;;;;;;;8.87;3.60;;;;;;;12.50;65.81;100083.84;4971601;28;20026;-81
2022/04/24 07:57:52;;;;;;;4.93;2.72;;;;;;;12.80;66.57;100170.25;4970759;28;20026;-82
2022/04/24 08:00:21;;;;;;;4.00;2.88;;;;;;;11.12;70.36;100075.53;4967952;28;20475;-84
2022/04/24 08:02:57;;;;;;;7.07;3.28;;;;;;;11.45;71.58;100165.22;4968588;28;20656;-81
2022/04/24 08:05:34;;;;;;;10.90;4.03;;;;;;;11.22;72.00;100143.91;4958402;28;20041;-82
2022/04/24 08:08:01;;;;;;;5.43;2.88;;;;;;;11.32;72.82;100193.41;4974996;28;20031;-81
2022/04/24 08:10:29;;;;;;;5.38;3.00;;;;;;;11.18;73.97;100213.72;4974646;28;20092;-82
2022/04/24 08:12:55;;;;;;;7.07;3.25;;;;;;;11.15;74.46;100229.28;4958427;28;20023;-81
2022/04/24 08:15:21;;;;;;;5.13;2.70;;;;;;;10.93;74.06;100180.19;4958225;28;20061;-81
2022/04/24 08:17:47;;;;;;;4.53;2.72;;;;;;;11.00;74.66;100229.22;4973640;28;20042;-82
2022/04/24 08:20:14;;;;;;;4.50;2.50;;;;;;;9.39;78.09;100143.38;4958429;28;20022;-82
2022/04/24 08:22:40;;;;;;;4.97;2.30;;;;;;;10.35;78.28;100281.97;4974594;28;20036;-80
2022/04/24 08:25:07;;;;;;;6.80;3.17;;;;;;;10.26;75.22;100178.09;4974158;28;20030;-83
2022/04/24 08:27:32;;;;;;;;;;;;;;;10.34;76.83;100242.09;4975748;28;20129;-83
2022/04/24 08:29:58;;;;;;;;;;;;;;;10.72;76.69;100276.97;4975519;28;19993;-81
2022/04/24 08:32:24;;;;;;;3.57;2.50;;;;;;;10.93;75.94;100285.22;4974585;28;19976;-81
2022/04/24 08:34:50;;;;;;;4.05;2.60;;;;;;;10.88;73.53;100202.09;4959272;28;20056;-79
2022/04/24 08:37:15;;;;;;;6.40;2.47;;;;;;;11.39;72.68;100237.09;4974737;28;20042;-80
2022/04/24 08:39:41;;;;;;;5.97;3.20;;;;;;;11.60;72.76;100255.13;4974741;28;20030;-82
2022/04/24 08:42:09;;;;;;;4.57;2.47;;;;;;;11.67;72.61;100239.19;4974121;28;20486;-83
2022/04/24 08:44:36;;;;;;;7.22;2.60;;;;;;;11.23;72.42;100181.13;4991486;28;20467;-81
2022/04/24 08:47:01;;;;;;;9.68;3.22;;;;;;;11.13;73.63;100220.63;4990250;28;20568;-81
2022/04/24 08:49:31;;;;;;;3.87;2.80;;;;;;;11.48;71.59;100202.28;4974676;28;20026;-82
2022/04/24 08:51:58;;;;;;;6.93;3.50;;;;;;;11.55;71.16;100192.53;4973673;28;20022;-81
2022/04/24 08:54:27;;;;;;;5.30;3.30;;;;;;;11.40;70.62;100163.94;4956202;28;20023;-84
2022/04/24 08:56:56;;;;;;;3.88;2.80;;;;;;;11.13;71.73;100172.53;4965347;28;20041;-83
2022/04/24 08:59:22;;;;;;;5.80;3.15;;;;;;;11.95;73.60;100335.75;4972928;28;20509;-83
2022/04/24 09:01:47;;;;;;;2.78;2.40;;;;;;;12.00;70.56;100234.38;4972596;28;20128;-84
2022/04/24 09:04:13;;;;;;;6.43;2.80;;;;;;;12.75;69.81;100301.25;4976093;28;20026;-83
2022/04/24 09:06:40;;;;;;;3.73;2.23;;;;;;;13.05;64.97;100134.00;4960384;28;20038;-83
2022/04/24 09:09:06;;;;;;;6.60;2.70;;;;;;;11.82;69.10;100146.44;4975663;28;20534;-83
2022/04/24 09:11:33;;;;;;;6.05;2.67;;;;;;;12.61;68.16;100214.53;4960102;28;20066;-84
2022/04/24 09:16:51;;;;;;;5.15;2.90;;;;;;;11.13;68.56;100012.25;4975861;28;20501;-83
2022/04/24 09:19:20;;;;;;;5.65;3.45;;;;;;;10.23;75.79;100173.09;4972856;28;20085;-83
2022/04/24 09:21:46;;;;;;;7.78;2.78;;;;;;;10.49;76.83;100224.38;4956963;28;20556;-83
2022/04/24 09:24:13;;;;;;;7.68;3.58;;;;;;;9.94;77.75;100187.88;4975694;28;20034;-83
2022/04/24 09:26:51;;;;;;;10.18;2.90;;;;;;;10.52;78.79;100309.44;4960117;28;20485;-84
2022/04/24 09:29:17;;;;;;;8.43;2.65;;;;;;;9.83;78.51;100201.56;4967978;28;20034;-83
2022/04/24 09:31:46;;;;;;;7.07;2.83;;;;;;;9.96;80.15;100265.06;4956323;28;20045;-83
2022/04/24 09:34:13;;;;;;;13.32;3.67;;;;;;;9.79;80.39;100248.25;4975326;28;20053;-84
2022/04/24 09:36:38;;;;;;;6.43;3.08;;;;;;;10.15;82.38;100342.03;4976267;28;20481;-84
2022/04/24 09:39:03;;;;;;;12.27;3.43;;;;;;;10.29;80.93;100327.19;4992913;23;20062;-87
2022/04/24 09:41:29;;;;;;;7.03;2.47;;;;;;;9.87;80.53;100251.72;4984353;28;20027;-88
2022/04/24 09:43:54;;;;;;;10.00;2.77;;;;;;;9.50;83.23;100289.56;4979126;28;20034;-88
2022/04/24 09:46:27;;;;;;;9.30;2.80;;;;;;;10.09;82.87;100342.69;4980418;28;20027;-89
2022/04/24 09:48:57;;;;;;;7.63;2.65;;;;;;;10.39;82.24;100351.81;4988950;28;20105;-88
2022/04/24 09:51:22;;;;;;;6.43;2.47;;;;;;;10.86;80.35;100350.97;4967307;28;20483;-87
2022/04/24 09:53:50;;;;;;;5.32;2.97;;;;;;;11.08;78.56;100313.84;4982099;28;20085;-86
2022/04/24 09:56:19;;;;;;;5.45;2.22;;;;;;;11.18;75.58;100245.78;4968465;28;20048;-85
2022/04/24 09:58:45;;;;;;;11.45;3.88;;;;;;;10.61;75.94;100194.63;4997185;28;20041;-85
2022/04/24 10:01:12;;;;;;;6.78;2.70;;;;;;;10.80;78.36;100294.78;4989508;28;20034;-86
2022/04/24 10:03:38;;;;;;;9.35;5.18;;;;;;;10.13;78.08;100211.47;4964123;28;20567;-86
2022/04/24 10:06:05;;;;;;;8.40;3.22;;;;;;;10.49;79.60;100309.78;4990238;28;20026;-88
2022/04/24 10:08:32;;;;;;;6.90;4.28;;;;;;;10.34;77.93;100221.59;4995997;28;20030;-88
2022/04/24 10:11:02;;;;;;;6.10;3.60;;;;;;;10.70;84.06;100412.47;4997133;28;20390;-87
2022/04/24 10:13:28;;;;;;;4.55;2.95;;;;;;;10.70;79.31;100293.16;4980546;28;20038;-87
2022/04/24 10:16:13;;;;;;;;;;;;;;;10.52;79.26;100276.56;5002896;28;20018;-88
2022/04/24 10:18:54;;;;;;;6.35;2.85;;;;;;;10.46;80.44;100306.59;4999455;28;19953;-87
2022/04/24 10:21:38;;;;;;;6.22;3.35;;;;;;;9.57;80.46;100205.28;4977956;28;20034;-87
2022/04/24 10:24:11;;;;;;;10.13;3.25;;;;;;;9.83;84.92;100364.22;4997596;28;20042;-87
2022/04/24 10:26:37;;;;;;;8.80;4.25;;;;;;;9.14;89.10;100377.78;4996311;28;20383;-87
2022/04/24 10:29:10;;;;;;;8.23;3.50;;;;;;;9.07;90.50;100392.75;4967310;28;20022;-88
2022/04/24 10:31:43;;;;;;;10.02;4.78;;;;;;;9.66;90.72;100428.19;4981428;28;20050;-87
2022/04/24 10:34:09;;;;;;;4.60;3.53;;;;;;;10.03;87.28;100410.06;4971338;28;20031;-88
2022/04/24 10:36:35;;;;;;;15.00;7.88;;;;;;;9.23;87.68;100312.06;4981354;28;20015;-89
2022/04/24 10:39:01;;;;;;;9.70;4.50;;;;;;;9.23;89.17;100352.84;4979847;28;20031;-86
2022/04/24 10:41:30;;;;;;;10.43;3.95;;;;;;;9.74;90.64;100422.06;4963631;28;20026;-87
2022/04/24 10:44:12;;;;;;;10.82;4.00;;;;;;;10.07;88.47;100404.22;4972849;28;20034;-87
2022/04/24 10:46:40;;;;;;;8.38;3.40;;;;;;;10.28;86.86;100392.19;4980062;28;20097;-87
2022/04/24 10:49:14;;;;;;;6.93;3.50;;;;;;;10.29;84.90;100336.00;4971650;28;20034;-89
2022/04/24 10:51:41;;;;;;;6.00;3.33;;;;;;;10.44;84.09;100349.50;4972576;28;20499;-87
2022/04/24 10:54:14;;;;;;;9.25;3.28;;;;;;;9.79;87.42;100357.56;4989910;28;20117;-87
2022/04/24 10:56:43;;;;;;;5.40;2.85;;;;;;;9.62;89.22;100380.69;4979357;28;20034;-85
2022/04/24 10:59:15;;;;;;;10.68;3.58;;;;;;;9.98;89.52;100409.72;4980677;28;20021;-84
2022/04/24 11:01:51;;;;;;;8.15;3.53;;;;;;;10.23;88.17;100394.53;4985999;28;20502;-86
2022/04/24 11:04:16;;;;;;;;;;;;;;;10.54;87.75;100418.69;4971521;28;20027;-85
2022/04/24 11:06:55;;;;;;;;;;;;;;;10.17;85.80;100342.69;4983450;28;19916;-88
2022/04/24 11:09:22;;;;;;;5.95;3.47;;;;;;;9.71;88.06;100353.03;4998222;28;20293;-88
2022/04/24 11:11:56;;;;;;;8.50;3.60;;;;;;;9.11;91.38;100367.47;4982167;28;20019;-87
2022/04/24 11:14:27;;;;;;;7.10;3.03;;;;;;;9.54;91.39;100428.66;4999301;28;20040;-87
2022/04/24 11:16:57;;;;;;;11.85;3.53;;;;;;;9.73;91.75;100431.84;5002356;28;20026;-88
2022/04/24 11:19:25;;;;;;;9.32;3.63;;;;;;;9.63;90.91;100406.38;4999335;28;20042;-87
2022/04/24 11:22:14;;;;;;;10.15;4.35;;;;;;;9.42;90.76;100366.88;4981933;28;20066;-88
2022/04/24 11:24:41;;;;;;;9.65;4.28;;;;;;;9.98;92.47;100461.22;4989999;28;20054;-87
2022/04/24 11:27:11;;;;;;;9.25;3.45;;;;;;;10.24;90.45;100428.22;4989257;28;20058;-88